• Join FlightAware (Why Join?)
  • Login
  • US Flag 
10:54PM EDT


 

Airport Tracker/Info


-or-


 

Live Flight TrackerFlight Track Log ✈ UCA597 ✈ 08-Sep-2013 ✈ KIAD - KBGM

Flight Track Log - Related Links

Times and Time Zones

All times are in EDT time to prevent confusion due to time zone crossing. See the UCA597 flight status page for this flight to view local times or setup timezone preferences in your user account.

Time Position Orientation Groundspeed Altitude Reporting Facility
EDT Latitude Longitude Course Direction KTS MPH feet Rate Location/Type
06:02PM 39.0283 -77.4461 352° North 176 203 3,200  Level Washington Center
06:03PM 39.0761 -77.4553 352° North 176 203 4,700 1,440 Climbing Washington Center
06:04PM 39.1200 -77.4564 359° North 176 203 6,200 1,380 Climbing Washington Center
06:05PM 39.1678 -77.4575 359° North 176 203 7,500 1,380 Climbing Washington Center
06:06PM 39.2158 -77.4561 North 176 203 9,000 1,080 Climbing Washington Center
06:08PM 39.3219 -77.4614 358° North 176 203 10,900 960 Climbing Washington Center
06:09PM 39.3783 -77.4603 North 181 208 12,000 960 Climbing Washington Center
06:10PM 39.4303 -77.4589 North 186 214 12,900 900 Climbing Washington Center
06:12PM 39.5589 -77.4578 360° North 186 214 15,200 1,020 Climbing New York Center
06:13PM 39.6114 -77.4544 North 186 214 16,300 1,200 Climbing New York Center
06:14PM 39.6594 -77.4536 North 175 201 17,700 1,140 Climbing New York Center
06:15PM 39.7053 -77.4528 North 165 190 18,600 600 Climbing New York Center
06:16PM 39.7533 -77.4519 North 165 190 19,000 180 Climbing New York Center
06:17PM 39.8139 -77.4522 360° North 190 219 19,000  Level New York Center
06:18PM 39.8786 -77.4503 North 222 255 19,000  Level New York Center
06:19PM 39.9453 -77.4511 359° North 234 269 19,000  Level New York Center
06:20PM 40.0142 -77.4497 North 234 269 19,000  Level New York Center
06:21PM 40.0808 -77.4478 North 234 269 19,000  Level New York Center
06:22PM 40.1517 -77.4492 359° North 239 275 19,000  Level New York Center
06:23PM 40.2186 -77.4475 North 239 275 19,000  Level New York Center
06:24PM 40.2811 -77.4453 North 239 275 19,000  Level New York Center
06:25PM 40.3561 -77.4472 359° North 239 275 19,000  Level New York Center
06:26PM 40.4167 -77.4475 360° North 239 275 19,000  Level New York Center
06:27PM 40.4919 -77.4439 North 239 275 19,000 -360 Level New York Center
06:28PM 40.5544 -77.4417 North 239 275 18,300 -600 Descending New York Center
06:29PM 40.6358 -77.4414 360° North 254 292 17,900 -600 Descending New York Center
06:30PM 40.7133 -77.4353 North 261 300 17,100 -480 Descending New York Center
06:31PM 40.7806 -77.3869 29° Northeast 267 307 17,000 -60 Descending New York Center
06:32PM 40.8419 -77.3353 32° Northeast 262 302 17,000  Level New York Center
06:33PM 40.9033 -77.2781 35° Northeast 262 302 17,000  Level New York Center
06:34PM 40.9625 -77.2261 34° Northeast 262 302 17,000  Level New York Center
06:35PM 41.0217 -77.1739 34° Northeast 257 296 17,000  Level New York Center
06:36PM 41.0806 -77.1217 34° Northeast 252 290 17,000  Level New York Center
06:37PM 41.1400 -77.0664 35° Northeast 252 290 17,000  Level New York Center
06:38PM 41.2011 -77.0142 33° Northeast 252 290 17,000  Level New York Center
06:39PM 41.2600 -76.9589 35° Northeast 252 290 17,000  Level New York Center
06:40PM 41.3192 -76.9064 34° Northeast 252 290 17,000  Level New York Center
06:41PM 41.3800 -76.8567 32° Northeast 252 290 17,000  Level New York Center
06:42PM 41.4392 -76.8011 35° Northeast 252 290 17,000  Level New York Center
06:43PM 41.4981 -76.7481 34° Northeast 252 290 17,000  Level New York Center
06:44PM 41.5528 -76.6922 37° Northeast 252 290 17,000 -360 Level New York Center
06:45PM 41.6072 -76.6442 33° Northeast 252 290 16,300 -900 Descending New York Center
06:46PM 41.6794 -76.5783 34° Northeast 269 310 15,200 -1,080 Descending New York Center
06:47PM 41.7425 -76.5200 35° Northeast 277 319 14,200 -1,200 Descending New York Center
06:48PM 41.8014 -76.4664 34° Northeast 277 319 12,900 -1,440 Descending New York Center
06:49PM 41.8625 -76.4078 36° Northeast 272 313 11,400 -1,560 Descending New York Center
06:50PM 41.9136 -76.3367 46° Northeast 267 307 9,800 -1,680 Descending New York Center
06:51PM 41.9731 -76.2664 41° Northeast 260 299 8,100 -1,560 Descending New York Center
06:52PM 42.0239 -76.2064 41° Northeast 248 285 6,700 -1,380 Descending New York Center
06:53PM 42.0622 -76.1425 51° Northeast 248 285 5,400 -1,200 Descending New York Center
06:54PM 42.0822 -76.0658 71° East 226 260 4,300 1,800 Descending New York Center
06:55PM 42.1056 -76.0092 61° Northeast 206 237 9,000 -660 Climbing New York Center
06:56PM 42.1286 -75.9550 60° Northeast 177 204 3,000 -3,300 Descending New York Center
06:57PM 42.1647 -75.9439 13° North 132 152 2,400 -480 Descending New York Center
06:58PM 42.2008 -75.9272 19° North 117 135 2,100 3,300 Descending New York Center
06:59PM 42.2328 -75.9100 22° Northeast 117 135 9,000 6,900 Climbing New York Center
07:01PM 42.2000 -75.9667 251° West  Level FlightAware Approximate
07:08PM 42.2084 -75.9796 251° West  Level Estimated
07:09PM 42.2084 -75.9796 251° West  Level Estimated